Latest Coastal Weather Observations for Ulladulla

IDN60701

Issued at 4:32 pm EST Thursday 28 July 2016 (issued every 10 minutes, with the page automatically refreshed every 10 minutes)

About coastal observations | Map of coastal stations | Coastal observations for NSW | Marine services | Other Formats
Station Details ID: 069138 Name: ULLADULLA AWS Lat: -35.36 Lon: 150.48 Height: 35.7 m
Data from the previous 72 hours. | See also: Recent months at Ulladulla
Date/Time
EST
Temp
°C
Wind Pressure Rain since
9am
mm
Weather Cloud Vis
km
Sea
Height
m
Swell
Dir  Spd
kts
Gust
kts
hPa Trend Height
m
Period
s
Dir
28/04:30pm 16.1 NW 5 9 1019.5 - 0.0 - - - - - - -
28/04:00pm 16.9 N 1 3 1019.4 - 0.0 - - - - - - -
28/03:30pm 16.2 N 2 4 1019.4 - 0.0 - - - - - - -
28/03:00pm 17.8 W 6 10 1019.3 - 0.0 - - - - - - -
28/02:30pm 17.6 W 6 12 1019.5 - 0.0 - - - - - - -
28/02:00pm 17.9 W 4 8 1019.6 - 0.0 - - - - - - -
28/01:30pm 17.1 N 4 7 1019.7 - 0.0 - - - - - - -
28/01:00pm 16.6 SW 3 4 1020.2 - 0.0 - - - - - - -
28/12:30pm 15.6 SSE 4 5 1020.6 - 0.0 - - - - - - -
28/12:00pm 16.0 NNW 3 7 1021.3 - 0.0 - - - - - - -
28/11:30am 15.1 N 6 9 1021.7 - 0.0 - - - - - - -
28/11:00am 14.8 NNE 4 6 1022.4 - 0.0 - - - - - - -
28/10:30am 15.0 NNE 3 5 1022.3 - 0.0 - - - - - - -
28/10:00am 14.9 NW 4 6 1022.6 - 0.0 - - - - - - -
28/09:30am 14.1 WNW 5 8 1022.5 - 0.0 - - - - - - -
28/09:00am 13.1 WNW 6 12 1022.3 - 0.0 - - - - - - -
28/08:30am 12.4 NW 6 9 1022.5 - 0.0 - - - - - - -
28/08:00am 11.3 NW 6 10 1022.3 - 0.0 - - - - - - -
28/07:30am 10.4 NW 5 9 1022.2 - 0.0 - - - - - - -
28/07:00am 10.0 W 5 10 1022.0 - 0.0 - - - - - - -
28/06:30am 10.0 W 5 7 1021.7 - 0.0 - - - - - - -
28/06:00am 10.2 W 5 9 1021.4 - 0.0 - - - - - - -
28/05:30am 10.4 W 6 10 1020.8 - 0.0 - - - - - - -
28/05:00am 10.4 WNW 6 10 1020.4 - 0.0 - - - - - - -
28/04:30am 8.6 WNW 2 5 1020.0 - 0.0 - - - - - - -
28/04:00am 8.2 NE 1 1 1019.7 - 0.0 - - - - - - -
28/03:30am 9.5 WNW 3 5 1019.5 - 0.0 - - - - - - -
28/03:00am 9.4 NW 3 6 1019.5 - 0.0 - - - - - - -
28/02:30am 9.1 N 3 4 1019.5 - 0.0 - - - - - - -
28/02:00am 10.1 NW 4 7 1019.4 - 0.0 - - - - - - -
28/01:30am 11.4 W 4 7 1019.7 - 0.0 - - - - - - -
28/01:00am 11.5 WNW 6 9 1019.5 - 0.0 - - - - - - -
28/12:30am 11.7 WNW 8 13 1019.5 - 0.0 - - - - - - -
28/12:00am 11.7 WNW 8 13 1019.5 - 0.0 - - - - - - -
 
Date/Time
EST
Temp
°C
Wind Pressure Rain since
9am
mm
Weather Cloud Vis
km
Sea
Height
m
Swell
Dir  Spd
kts
Gust
kts
hPa Trend Height
m
Period
s
Dir
27/11:30pm 11.9 WNW 9 15 1019.6 - 0.0 - - - - - - -
27/11:00pm 11.9 WNW 7 15 1019.5 - 0.0 - - - - - - -
27/10:30pm 12.0 W 8 12 1019.0 - 0.0 - - - - - - -
27/10:00pm 12.2 W 8 15 1018.7 - 0.0 - - - - - - -
27/09:30pm 12.5 W 9 17 1018.1 - 0.0 - - - - - - -
27/09:00pm 12.5 WNW 8 14 1018.0 - 0.0 - - - - - - -
27/08:30pm 12.6 W 9 16 1017.9 - 0.0 - - - - - - -
27/08:00pm 12.8 WNW 8 18 1017.3 - 0.0 - - - - - - -
27/07:30pm 13.0 WNW 9 16 1016.4 - 0.0 - - - - - - -
27/07:00pm 13.3 W 9 16 1015.9 - 0.0 - - - - - - -
27/06:30pm 13.5 W 8 21 1015.1 - 0.0 - - - - - - -
27/06:00pm 13.8 W 9 19 1014.5 - 0.0 - - - - - - -
27/05:30pm 14.2 W 10 18 1013.9 - 0.0 - - - - - - -
27/05:00pm 14.7 W 10 17 1013.2 - 0.0 - - - - - - -
27/04:30pm 15.6 WNW 10 18 1012.6 - 0.0 - - - - - - -
27/04:00pm 16.2 WNW 9 16 1012.3 - 0.0 - - - - - - -
27/03:30pm 16.6 WNW 10 18 1011.8 - 0.0 - - - - - - -
27/03:00pm 16.9 WNW 9 18 1011.5 - 0.0 - - - - - - -
27/02:30pm 17.4 WNW 6 10 1011.2 - 0.0 - - - - - - -
27/02:00pm 17.1 WNW 10 16 1011.0 - 0.0 - - - - - - -
27/01:30pm 17.3 W 8 15 1010.7 - 0.0 - - - - - - -
27/01:00pm 17.2 W 8 17 1010.7 - 0.0 - - - - - - -
27/12:30pm 17.2 WSW 8 14 1010.7 - 0.0 - - - - - - -
27/12:00pm 16.6 W 8 15 1010.9 - 0.0 - - - - - - -
27/11:30am 15.9 W 10 20 1010.7 - 0.0 - - - - - - -
27/11:00am 15.7 W 9 20 1010.7 - 0.0 - - - - - - -
27/10:30am 14.7 WNW 6 11 1010.8 - 0.0 - - - - - - -
27/10:00am 13.9 WNW 7 14 1010.8 - 0.0 - - - - - - -
27/09:30am 13.5 W 6 16 1010.5 - 0.0 - - - - - - -
27/09:00am 13.8 W 6 13 1009.6 - 0.0 - - - - - - -
27/08:30am 12.7 W 7 16 1009.2 - 0.0 - - - - - - -
27/08:00am 13.6 NW 7 17 1007.9 - 0.0 - - - - - - -
27/07:30am 13.0 N 3 8 1008.1 - 0.0 - - - - - - -
27/07:00am 12.9 NNW 9 19 1008.1 - 0.0 - - - - - - -
27/06:30am 11.9 NW 7 13 1008.1 - 0.0 - - - - - - -
27/06:00am 10.1 W 1 4 1008.5 - 0.0 - - - - - - -
27/05:30am 11.1 SW 4 13 1008.6 - 0.0 - - - - - - -
27/05:00am 11.1 W 2 7 1008.3 - 0.0 - - - - - - -
27/04:30am 10.2 SE 1 3 1008.4 - 0.0 - - - - - - -
27/04:00am 10.4 SSW 3 5 1008.8 - 0.0 - - - - - - -
27/03:30am 10.3 SSE 4 7 1008.8 - 0.0 - - - - - - -
27/03:00am 9.7 NW 3 4 1009.2 - 0.0 - - - - - - -
27/02:30am 10.8 NNW 2 8 1010.1 - 0.0 - - - - - - -
27/02:00am 9.7 SW 1 4 1010.0 - 0.0 - - - - - - -
27/01:30am 10.5 SSW 2 5 1010.3 - 0.0 - - - - - - -
27/01:00am 9.9 WSW 2 5 1010.4 - 0.0 - - - - - - -
27/12:30am 9.8 W 3 5 1010.8 - 0.0 - - - - - - -
27/12:00am 10.0 NNW 3 7 1011.1 - 0.0 - - - - - - -
 
Date/Time
EST
Temp
°C
Wind Pressure Rain since
9am
mm
Weather Cloud Vis
km
Sea
Height
m
Swell
Dir  Spd
kts
Gust
kts
hPa Trend Height
m
Period
s
Dir
26/11:30pm 10.6 WNW 4 11 1011.4 - 0.0 - - - - - - -
26/11:00pm 9.1 W 1 5 1012.0 - 0.0 - - - - - - -
26/10:30pm 8.8 CALM 0 3 1012.4 - 0.0 - - - - - - -
26/10:00pm 8.9 NW 1 3 1012.5 - 0.0 - - - - - - -
26/09:30pm 10.3 NW 2 6 1012.9 - 0.0 - - - - - - -
26/09:00pm 10.2 NNW 1 3 1013.1 - 0.0 - - - - - - -
26/08:30pm 11.4 NNW 3 6 1013.3 - 0.0 - - - - - - -
26/08:00pm 11.3 NNW 2 5 1013.3 - 0.0 - - - - - - -
26/07:30pm 11.2 NW 3 7 1013.4 - 0.0 - - - - - - -
26/07:00pm 11.5 NW 2 5 1013.6 - 0.0 - - - - - - -
26/06:30pm 11.4 NW 3 8 1013.5 - 0.0 - - - - - - -
26/06:00pm 11.5 NW 4 9 1013.2 - 0.0 - - - - - - -
26/05:30pm 11.2 NW 3 5 1012.9 - 0.0 - - - - - - -
26/05:00pm 11.8 NW 3 5 1012.5 - 0.0 - - - - - - -
26/04:30pm 13.3 NW 8 13 1012.1 - 0.0 - - - - - - -
26/04:00pm 13.8 NW 7 14 1012.0 - 0.0 - - - - - - -
26/03:30pm 14.2 NW 10 16 1012.2 - 0.0 - - - - - - -
26/03:00pm 14.7 WNW 9 14 1012.1 - 0.0 - - - - - - -
26/02:30pm 14.9 NW 8 13 1011.9 - 0.0 - - - - - - -
26/02:00pm 15.2 WNW 9 16 1012.0 - 0.0 - - - - - - -
26/01:30pm 15.1 WNW 9 16 1012.4 - 0.0 - - - - - - -
26/01:00pm 14.6 NW 13 21 1012.1 - 0.0 - - - - - - -
26/12:30pm 14.7 NW 13 19 1012.5 - 0.0 - - - - - - -
26/12:00pm 15.1 WNW 6 13 1013.0 - 0.0 - - - - - - -
26/11:30am 14.4 NW 13 21 1013.3 - 0.0 - - - - - - -
26/11:00am 14.5 WNW 10 17 1013.3 - 0.0 - - - - - - -
26/10:30am 14.1 NW 10 19 1013.6 - 0.0 - - - - - - -
26/10:00am 14.0 W 6 12 1013.9 - 0.0 - - - - - - -
26/09:30am 13.3 WNW 8 17 1013.8 - 0.0 - - - - - - -
26/09:00am 12.7 W 10 23 1013.6 - 0.0 - - - - - - -
26/08:30am 12.5 W 10 21 1013.0 - 0.0 - - - - - - -
26/08:00am 12.0 WSW 7 14 1012.6 - 0.0 - - - - - - -
26/07:30am 11.5 WSW 8 18 1012.2 - 0.0 - - - - - - -
26/07:00am 11.4 WSW 10 19 1011.5 - 0.0 - - - - - - -
26/06:30am 11.6 WSW 6 18 1010.9 - 0.0 - - - - - - -
26/06:00am 12.0 W 9 17 1010.5 - 0.0 - - - - - - -
26/05:30am 12.2 WNW 7 16 1009.5 - 0.0 - - - - - - -
26/05:00am 12.4 WNW 11 26 1009.4 - 0.0 - - - - - - -
26/04:30am 12.1 WNW 5 10 1008.9 - 0.0 - - - - - - -
26/04:00am 12.4 W 9 21 1008.7 - 0.0 - - - - - - -
26/03:30am 12.6 WNW 4 8 1008.2 - 0.0 - - - - - - -
26/03:00am 12.9 NW 9 18 1008.2 - 0.0 - - - - - - -
26/02:30am 12.9 NW 13 25 1008.4 - 0.0 - - - - - - -
26/02:00am 12.7 NW 10 19 1008.3 - 0.0 - - - - - - -
26/01:30am 12.4 NW 6 17 1008.6 - 0.0 - - - - - - -
26/01:00am 12.4 NW 6 17 1008.6 - 0.0 - - - - - - -
26/12:30am 12.2 NNW 5 8 1008.7 - 0.0 - - - - - - -
26/12:00am 12.2 NW 7 13 1009.0 - 0.0 - - - - - - -
 
Date/Time
EST
Temp
°C
Wind Pressure Rain since
9am
mm
Weather Cloud Vis
km
Sea
Height
m
Swell
Dir  Spd
kts
Gust
kts
hPa Trend Height
m
Period
s
Dir
25/11:30pm 12.1 NW 6 15 1009.4 - 0.0 - - - - - - -
25/11:00pm 11.1 NW 2 8 1009.3 - 0.0 - - - - - - -
25/10:30pm 9.9 SE 2 4 1009.7 - 0.0 - - - - - - -
25/10:00pm 11.1 W 3 9 1009.7 - 0.0 - - - - - - -
25/09:30pm 11.2 NNW 3 5 1009.8 - 0.0 - - - - - - -
25/09:00pm 12.0 NW 9 16 1009.9 - 0.0 - - - - - - -
25/08:30pm 12.0 NW 9 15 1010.1 - 0.0 - - - - - - -
25/08:00pm 12.0 NW 8 15 1010.1 - 0.0 - - - - - - -
25/07:30pm 10.5 N 2 5 1010.2 - 0.0 - - - - - - -
25/07:00pm 11.9 NNE 2 4 1010.2 - 0.0 - - - - - - -
25/06:30pm 12.6 N 5 10 1009.9 - 0.0 - - - - - - -
25/06:00pm 12.3 NW 8 12 1009.8 - 0.0 - - - - - - -
25/05:30pm 12.5 NW 7 11 1009.8 - 0.0 - - - - - - -
25/05:00pm 12.8 WNW 7 18 1010.0 - 0.0 - - - - - - -

Other Formats:

Comma delimited format used in spreadsheet applications
http://www.bom.gov.au/fwo/IDN60701/IDN60701.94938.axf

JavaScript Object Notation format (JSON) in row-major order
http://www.bom.gov.au/fwo/IDN60701/IDN60701.94938.json